sensor_id;sensor_type;location;lat;lon;timestamp;temperature;humidity
7496;DHT22;3789;47.064;15.482;2023-05-07T00:01:45;14.00;99.90
7496;DHT22;3789;47.064;15.482;2023-05-07T00:04:13;14.00;99.90
7496;DHT22;3789;47.064;15.482;2023-05-07T00:06:42;14.00;99.90
7496;DHT22;3789;47.064;15.482;2023-05-07T00:09:10;13.90;99.90
7496;DHT22;3789;47.064;15.482;2023-05-07T00:11:49;13.90;99.90
7496;DHT22;3789;47.064;15.482;2023-05-07T00:14:26;14.00;99.90
7496;DHT22;3789;47.064;15.482;2023-05-07T00:16:57;14.00;99.90
7496;DHT22;3789;47.064;15.482;2023-05-07T00:19:27;14.00;99.90
7496;DHT22;3789;47.064;15.482;2023-05-07T00:21:56;13.90;99.90
7496;DHT22;3789;47.064;15.482;2023-05-07T00:24:27;14.00;99.90
7496;DHT22;3789;47.064;15.482;2023-05-07T00:26:55;14.10;99.90
7496;DHT22;3789;47.064;15.482;2023-05-07T00:29:27;14.10;99.90
7496;DHT22;3789;47.064;15.482;2023-05-07T00:31:55;14.10;99.90
7496;DHT22;3789;47.064;15.482;2023-05-07T00:34:22;14.10;99.90
7496;DHT22;3789;47.064;15.482;2023-05-07T00:36:53;14.00;99.90
7496;DHT22;3789;47.064;15.482;2023-05-07T00:39:21;13.90;99.90
7496;DHT22;3789;47.064;15.482;2023-05-07T00:41:50;13.90;99.90
7496;DHT22;3789;47.064;15.482;2023-05-07T00:44:22;13.90;99.90
7496;DHT22;3789;47.064;15.482;2023-05-07T00:46:51;14.00;99.90
7496;DHT22;3789;47.064;15.482;2023-05-07T00:49:21;13.90;99.90
7496;DHT22;3789;47.064;15.482;2023-05-07T00:51:57;13.90;99.90
7496;DHT22;3789;47.064;15.482;2023-05-07T00:54:34;13.90;99.90
7496;DHT22;3789;47.064;15.482;2023-05-07T00:57:03;13.90;99.90
7496;DHT22;3789;47.064;15.482;2023-05-07T00:59:40;13.80;99.90
7496;DHT22;3789;47.064;15.482;2023-05-07T01:02:14;13.80;99.90
7496;DHT22;3789;47.064;15.482;2023-05-07T01:04:46;13.80;99.90
7496;DHT22;3789;47.064;15.482;2023-05-07T01:07:16;13.80;99.90
7496;DHT22;3789;47.064;15.482;2023-05-07T01:09:45;13.80;99.90
7496;DHT22;3789;47.064;15.482;2023-05-07T01:12:15;13.80;99.90
7496;DHT22;3789;47.064;15.482;2023-05-07T01:14:43;13.80;99.90
7496;DHT22;3789;47.064;15.482;2023-05-07T01:17:13;13.80;99.90
7496;DHT22;3789;47.064;15.482;2023-05-07T01:19:43;13.80;99.90
7496;DHT22;3789;47.064;15.482;2023-05-07T01:22:16;13.70;99.90
7496;DHT22;3789;47.064;15.482;2023-05-07T01:25:07;13.60;99.90
7496;DHT22;3789;47.064;15.482;2023-05-07T01:27:45;13.50;99.90
7496;DHT22;3789;47.064;15.482;2023-05-07T01:30:13;13.70;99.90
7496;DHT22;3789;47.064;15.482;2023-05-07T01:33:04;13.50;99.90
7496;DHT22;3789;47.064;15.482;2023-05-07T01:35:43;13.40;99.90
7496;DHT22;3789;47.064;15.482;2023-05-07T01:38:17;13.40;99.90
7496;DHT22;3789;47.064;15.482;2023-05-07T01:40:46;13.40;99.90
7496;DHT22;3789;47.064;15.482;2023-05-07T01:43:17;13.40;99.90
7496;DHT22;3789;47.064;15.482;2023-05-07T01:45:48;13.50;99.90
7496;DHT22;3789;47.064;15.482;2023-05-07T01:48:21;13.30;99.90
7496;DHT22;3789;47.064;15.482;2023-05-07T01:50:50;13.10;99.90
7496;DHT22;3789;47.064;15.482;2023-05-07T01:53:36;13.10;99.90
7496;DHT22;3789;47.064;15.482;2023-05-07T01:56:05;13.30;99.90
7496;DHT22;3789;47.064;15.482;2023-05-07T01:58:33;13.30;99.90
7496;DHT22;3789;47.064;15.482;2023-05-07T02:01:03;13.20;99.90
7496;DHT22;3789;47.064;15.482;2023-05-07T02:03:33;13.10;99.90
7496;DHT22;3789;47.064;15.482;2023-05-07T02:06:03;13.10;99.90
7496;DHT22;3789;47.064;15.482;2023-05-07T02:08:33;13.10;99.90
7496;DHT22;3789;47.064;15.482;2023-05-07T02:11:01;13.10;99.90
7496;DHT22;3789;47.064;15.482;2023-05-07T02:13:33;13.30;99.90
7496;DHT22;3789;47.064;15.482;2023-05-07T02:16:05;13.20;99.90
7496;DHT22;3789;47.064;15.482;2023-05-07T02:18:35;13.30;99.90
7496;DHT22;3789;47.064;15.482;2023-05-07T02:21:11;13.30;99.90
7496;DHT22;3789;47.064;15.482;2023-05-07T02:23:43;13.10;99.90
7496;DHT22;3789;47.064;15.482;2023-05-07T02:26:12;13.20;99.90
7496;DHT22;3789;47.064;15.482;2023-05-07T02:28:40;13.00;99.90
7496;DHT22;3789;47.064;15.482;2023-05-07T02:31:15;12.80;99.90
7496;DHT22;3789;47.064;15.482;2023-05-07T02:33:52;12.80;99.90
7496;DHT22;3789;47.064;15.482;2023-05-07T02:36:20;12.70;99.90
7496;DHT22;3789;47.064;15.482;2023-05-07T02:38:50;12.70;99.90
7496;DHT22;3789;47.064;15.482;2023-05-07T02:41:19;12.70;99.90
7496;DHT22;3789;47.064;15.482;2023-05-07T02:43:54;12.90;99.90
7496;DHT22;3789;47.064;15.482;2023-05-07T02:46:32;12.90;99.90
7496;DHT22;3789;47.064;15.482;2023-05-07T02:49:02;12.70;99.90
7496;DHT22;3789;47.064;15.482;2023-05-07T02:51:31;12.60;99.90
7496;DHT22;3789;47.064;15.482;2023-05-07T02:53:59;12.60;99.90
7496;DHT22;3789;47.064;15.482;2023-05-07T02:56:31;12.60;99.90
7496;DHT22;3789;47.064;15.482;2023-05-07T02:59:00;12.40;99.90
7496;DHT22;3789;47.064;15.482;2023-05-07T03:01:35;12.60;99.90
7496;DHT22;3789;47.064;15.482;2023-05-07T03:04:04;12.60;99.90
7496;DHT22;3789;47.064;15.482;2023-05-07T03:06:34;12.40;99.90
7496;DHT22;3789;47.064;15.482;2023-05-07T03:09:03;12.20;99.90
7496;DHT22;3789;47.064;15.482;2023-05-07T03:11:32;12.20;99.90
7496;DHT22;3789;47.064;15.482;2023-05-07T03:14:00;12.40;99.90
7496;DHT22;3789;47.064;15.482;2023-05-07T03:16:45;12.60;99.90
7496;DHT22;3789;47.064;15.482;2023-05-07T03:19:16;12.40;99.90
7496;DHT22;3789;47.064;15.482;2023-05-07T03:21:52;12.30;99.90
7496;DHT22;3789;47.064;15.482;2023-05-07T03:24:22;12.30;99.90
7496;DHT22;3789;47.064;15.482;2023-05-07T03:26:51;12.40;99.90
7496;DHT22;3789;47.064;15.482;2023-05-07T03:29:26;12.40;99.90
7496;DHT22;3789;47.064;15.482;2023-05-07T03:31:59;12.40;99.90
7496;DHT22;3789;47.064;15.482;2023-05-07T03:34:31;12.30;99.90
7496;DHT22;3789;47.064;15.482;2023-05-07T03:37:07;12.30;99.90
7496;DHT22;3789;47.064;15.482;2023-05-07T03:39:43;12.20;99.90
7496;DHT22;3789;47.064;15.482;2023-05-07T03:42:19;12.20;99.90
7496;DHT22;3789;47.064;15.482;2023-05-07T03:44:57;12.20;99.90
7496;DHT22;3789;47.064;15.482;2023-05-07T03:47:25;12.20;99.90
7496;DHT22;3789;47.064;15.482;2023-05-07T03:49:55;12.10;99.90
7496;DHT22;3789;47.064;15.482;2023-05-07T03:52:22;12.20;99.90
7496;DHT22;3789;47.064;15.482;2023-05-07T03:55:06;12.30;99.90
7496;DHT22;3789;47.064;15.482;2023-05-07T03:57:37;12.40;99.90
7496;DHT22;3789;47.064;15.482;2023-05-07T04:00:05;12.50;99.90
7496;DHT22;3789;47.064;15.482;2023-05-07T04:02:38;12.50;99.90
7496;DHT22;3789;47.064;15.482;2023-05-07T04:05:14;12.60;99.90
7496;DHT22;3789;47.064;15.482;2023-05-07T04:07:46;12.60;99.90
7496;DHT22;3789;47.064;15.482;2023-05-07T04:10:15;12.70;99.90
7496;DHT22;3789;47.064;15.482;2023-05-07T04:12:49;12.80;99.90
7496;DHT22;3789;47.064;15.482;2023-05-07T04:15:21;12.70;99.90
7496;DHT22;3789;47.064;15.482;2023-05-07T04:17:57;12.50;99.90
7496;DHT22;3789;47.064;15.482;2023-05-07T04:20:27;12.30;99.90
7496;DHT22;3789;47.064;15.482;2023-05-07T04:23:04;12.10;99.90
7496;DHT22;3789;47.064;15.482;2023-05-07T04:25:32;12.30;99.90
7496;DHT22;3789;47.064;15.482;2023-05-07T04:28:09;12.40;99.90
7496;DHT22;3789;47.064;15.482;2023-05-07T04:30:45;12.40;99.90
7496;DHT22;3789;47.064;15.482;2023-05-07T04:33:14;12.50;99.90
7496;DHT22;3789;47.064;15.482;2023-05-07T04:35:55;12.50;99.90
7496;DHT22;3789;47.064;15.482;2023-05-07T04:38:26;12.50;99.90
7496;DHT22;3789;47.064;15.482;2023-05-07T04:40:56;12.60;99.90
7496;DHT22;3789;47.064;15.482;2023-05-07T04:43:25;12.50;99.90
7496;DHT22;3789;47.064;15.482;2023-05-07T04:45:53;12.40;99.90
7496;DHT22;3789;47.064;15.482;2023-05-07T04:48:23;12.40;99.90
7496;DHT22;3789;47.064;15.482;2023-05-07T04:50:55;12.40;99.90
7496;DHT22;3789;47.064;15.482;2023-05-07T04:53:34;12.30;99.90
7496;DHT22;3789;47.064;15.482;2023-05-07T04:56:08;12.30;99.90
7496;DHT22;3789;47.064;15.482;2023-05-07T04:58:38;12.30;99.90
7496;DHT22;3789;47.064;15.482;2023-05-07T05:01:09;12.50;99.90
7496;DHT22;3789;47.064;15.482;2023-05-07T05:03:40;12.60;99.90
7496;DHT22;3789;47.064;15.482;2023-05-07T05:06:11;12.80;99.90
7496;DHT22;3789;47.064;15.482;2023-05-07T05:08:41;12.90;99.90
7496;DHT22;3789;47.064;15.482;2023-05-07T05:11:08;13.20;99.90
7496;DHT22;3789;47.064;15.482;2023-05-07T05:13:36;13.50;99.90
7496;DHT22;3789;47.064;15.482;2023-05-07T05:16:05;13.60;99.90
7496;DHT22;3789;47.064;15.482;2023-05-07T05:18:38;13.70;99.90
7496;DHT22;3789;47.064;15.482;2023-05-07T05:21:10;13.50;99.90
7496;DHT22;3789;47.064;15.482;2023-05-07T05:23:48;13.70;99.90
7496;DHT22;3789;47.064;15.482;2023-05-07T05:26:17;13.90;99.90
7496;DHT22;3789;47.064;15.482;2023-05-07T05:28:46;14.00;99.90
7496;DHT22;3789;47.064;15.482;2023-05-07T05:31:16;13.90;99.90
7496;DHT22;3789;47.064;15.482;2023-05-07T05:33:53;13.80;99.90
7496;DHT22;3789;47.064;15.482;2023-05-07T05:36:22;13.70;99.90
7496;DHT22;3789;47.064;15.482;2023-05-07T05:38:51;13.60;99.90
7496;DHT22;3789;47.064;15.482;2023-05-07T05:41:20;13.80;99.90
7496;DHT22;3789;47.064;15.482;2023-05-07T05:43:56;13.80;99.90
7496;DHT22;3789;47.064;15.482;2023-05-07T05:46:27;13.80;99.90
7496;DHT22;3789;47.064;15.482;2023-05-07T05:48:56;13.70;99.90
7496;DHT22;3789;47.064;15.482;2023-05-07T05:51:25;13.60;99.90
7496;DHT22;3789;47.064;15.482;2023-05-07T05:54:01;13.60;99.90
7496;DHT22;3789;47.064;15.482;2023-05-07T05:56:34;13.60;99.90
7496;DHT22;3789;47.064;15.482;2023-05-07T05:59:04;13.60;99.90
7496;DHT22;3789;47.064;15.482;2023-05-07T06:01:35;13.60;99.90
7496;DHT22;3789;47.064;15.482;2023-05-07T06:04:09;13.50;99.90
7496;DHT22;3789;47.064;15.482;2023-05-07T06:06:39;13.70;99.90
7496;DHT22;3789;47.064;15.482;2023-05-07T06:09:10;13.80;99.90
7496;DHT22;3789;47.064;15.482;2023-05-07T06:11:42;14.10;99.90
7496;DHT22;3789;47.064;15.482;2023-05-07T06:14:10;14.50;99.90
7496;DHT22;3789;47.064;15.482;2023-05-07T06:16:39;14.70;99.90
7496;DHT22;3789;47.064;15.482;2023-05-07T06:19:21;14.80;99.90
7496;DHT22;3789;47.064;15.482;2023-05-07T06:22:03;15.20;99.90
7496;DHT22;3789;47.064;15.482;2023-05-07T06:24:32;15.50;99.90
7496;DHT22;3789;47.064;15.482;2023-05-07T06:27:01;15.70;99.90
7496;DHT22;3789;47.064;15.482;2023-05-07T06:29:36;15.90;99.90
7496;DHT22;3789;47.064;15.482;2023-05-07T06:32:11;16.20;99.90
7496;DHT22;3789;47.064;15.482;2023-05-07T06:34:50;16.20;99.90
7496;DHT22;3789;47.064;15.482;2023-05-07T06:37:21;16.20;99.90
7496;DHT22;3789;47.064;15.482;2023-05-07T06:39:54;16.20;99.90
7496;DHT22;3789;47.064;15.482;2023-05-07T06:42:26;16.20;99.90
7496;DHT22;3789;47.064;15.482;2023-05-07T06:45:09;16.20;99.90
7496;DHT22;3789;47.064;15.482;2023-05-07T06:47:39;16.40;99.90
7496;DHT22;3789;47.064;15.482;2023-05-07T06:50:09;16.50;99.90
7496;DHT22;3789;47.064;15.482;2023-05-07T06:52:48;16.80;99.90
7496;DHT22;3789;47.064;15.482;2023-05-07T06:55:26;16.70;99.90
7496;DHT22;3789;47.064;15.482;2023-05-07T06:57:55;17.00;99.90
7496;DHT22;3789;47.064;15.482;2023-05-07T07:00:29;17.00;99.90
7496;DHT22;3789;47.064;15.482;2023-05-07T07:03:08;17.00;99.90
7496;DHT22;3789;47.064;15.482;2023-05-07T07:05:36;16.90;99.90
7496;DHT22;3789;47.064;15.482;2023-05-07T07:08:06;16.90;99.90
7496;DHT22;3789;47.064;15.482;2023-05-07T07:10:34;16.90;99.90
7496;DHT22;3789;47.064;15.482;2023-05-07T07:13:08;16.90;99.90
7496;DHT22;3789;47.064;15.482;2023-05-07T07:15:46;16.90;99.90
7496;DHT22;3789;47.064;15.482;2023-05-07T07:18:14;17.20;99.90
7496;DHT22;3789;47.064;15.482;2023-05-07T07:20:43;17.40;99.90
7496;DHT22;3789;47.064;15.482;2023-05-07T07:23:19;17.50;99.90
7496;DHT22;3789;47.064;15.482;2023-05-07T07:25:48;17.50;99.90
7496;DHT22;3789;47.064;15.482;2023-05-07T07:28:20;17.00;99.90
7496;DHT22;3789;47.064;15.482;2023-05-07T07:30:50;16.90;99.90
7496;DHT22;3789;47.064;15.482;2023-05-07T07:33:26;17.20;99.90
7496;DHT22;3789;47.064;15.482;2023-05-07T07:35:56;17.20;99.90
7496;DHT22;3789;47.064;15.482;2023-05-07T07:38:34;17.50;99.90
7496;DHT22;3789;47.064;15.482;2023-05-07T07:41:03;17.90;99.90
7496;DHT22;3789;47.064;15.482;2023-05-07T07:43:33;17.90;99.90
7496;DHT22;3789;47.064;15.482;2023-05-07T07:46:03;18.00;99.90
7496;DHT22;3789;47.064;15.482;2023-05-07T07:48:31;17.90;99.90
7496;DHT22;3789;47.064;15.482;2023-05-07T07:51:00;17.60;99.90
7496;DHT22;3789;47.064;15.482;2023-05-07T07:53:30;17.40;99.90
7496;DHT22;3789;47.064;15.482;2023-05-07T07:55:58;17.40;99.90
7496;DHT22;3789;47.064;15.482;2023-05-07T07:58:36;17.20;99.90
7496;DHT22;3789;47.064;15.482;2023-05-07T08:01:04;17.20;99.90
7496;DHT22;3789;47.064;15.482;2023-05-07T08:03:36;17.30;99.90
7496;DHT22;3789;47.064;15.482;2023-05-07T08:06:13;17.50;99.90
7496;DHT22;3789;47.064;15.482;2023-05-07T08:08:43;18.00;99.90
7496;DHT22;3789;47.064;15.482;2023-05-07T08:11:12;18.60;99.90
7496;DHT22;3789;47.064;15.482;2023-05-07T08:13:40;18.40;99.90
7496;DHT22;3789;47.064;15.482;2023-05-07T08:16:09;19.00;99.90
7496;DHT22;3789;47.064;15.482;2023-05-07T08:18:43;19.20;99.90
7496;DHT22;3789;47.064;15.482;2023-05-07T08:21:13;18.90;99.90
7496;DHT22;3789;47.064;15.482;2023-05-07T08:23:41;18.80;99.90
7496;DHT22;3789;47.064;15.482;2023-05-07T08:26:14;19.20;99.90
7496;DHT22;3789;47.064;15.482;2023-05-07T08:28:42;18.70;99.90
7496;DHT22;3789;47.064;15.482;2023-05-07T08:31:13;18.60;99.90
7496;DHT22;3789;47.064;15.482;2023-05-07T08:33:44;18.60;99.90
7496;DHT22;3789;47.064;15.482;2023-05-07T08:36:15;18.60;99.90
7496;DHT22;3789;47.064;15.482;2023-05-07T08:38:54;19.10;99.90
7496;DHT22;3789;47.064;15.482;2023-05-07T08:41:24;19.60;99.90
7496;DHT22;3789;47.064;15.482;2023-05-07T08:43:58;19.20;99.90
7496;DHT22;3789;47.064;15.482;2023-05-07T08:46:35;19.10;99.90
7496;DHT22;3789;47.064;15.482;2023-05-07T08:49:04;19.20;99.90
7496;DHT22;3789;47.064;15.482;2023-05-07T08:51:41;19.40;99.90
7496;DHT22;3789;47.064;15.482;2023-05-07T08:54:25;19.50;99.90
7496;DHT22;3789;47.064;15.482;2023-05-07T08:56:54;19.90;99.90
7496;DHT22;3789;47.064;15.482;2023-05-07T08:59:26;19.80;99.90
7496;DHT22;3789;47.064;15.482;2023-05-07T09:01:55;19.40;99.90
7496;DHT22;3789;47.064;15.482;2023-05-07T09:04:27;19.10;99.90
7496;DHT22;3789;47.064;15.482;2023-05-07T09:07:01;19.10;99.90
7496;DHT22;3789;47.064;15.482;2023-05-07T09:09:33;19.90;99.90
7496;DHT22;3789;47.064;15.482;2023-05-07T09:12:02;19.90;99.90
7496;DHT22;3789;47.064;15.482;2023-05-07T09:14:31;19.60;99.90
7496;DHT22;3789;47.064;15.482;2023-05-07T09:17:01;19.80;99.90
7496;DHT22;3789;47.064;15.482;2023-05-07T09:19:37;20.00;99.90
7496;DHT22;3789;47.064;15.482;2023-05-07T09:22:17;20.30;99.90
7496;DHT22;3789;47.064;15.482;2023-05-07T09:24:53;20.30;99.90
7496;DHT22;3789;47.064;15.482;2023-05-07T09:27:22;20.30;99.90
7496;DHT22;3789;47.064;15.482;2023-05-07T09:30:05;20.10;99.90
7496;DHT22;3789;47.064;15.482;2023-05-07T09:32:38;19.70;99.90
7496;DHT22;3789;47.064;15.482;2023-05-07T09:35:06;20.00;99.90
7496;DHT22;3789;47.064;15.482;2023-05-07T09:37:44;20.00;99.90
7496;DHT22;3789;47.064;15.482;2023-05-07T09:40:27;19.80;99.90
7496;DHT22;3789;47.064;15.482;2023-05-07T09:43:09;19.80;99.90
7496;DHT22;3789;47.064;15.482;2023-05-07T09:45:42;19.80;99.90
7496;DHT22;3789;47.064;15.482;2023-05-07T09:48:17;20.10;99.90
7496;DHT22;3789;47.064;15.482;2023-05-07T09:50:49;19.60;99.90
7496;DHT22;3789;47.064;15.482;2023-05-07T09:53:21;19.70;99.90
7496;DHT22;3789;47.064;15.482;2023-05-07T09:55:51;19.60;99.90
7496;DHT22;3789;47.064;15.482;2023-05-07T09:58:20;19.60;99.90
7496;DHT22;3789;47.064;15.482;2023-05-07T10:00:51;19.70;99.90
7496;DHT22;3789;47.064;15.482;2023-05-07T10:03:41;19.60;99.90
7496;DHT22;3789;47.064;15.482;2023-05-07T10:06:12;19.50;99.90
7496;DHT22;3789;47.064;15.482;2023-05-07T10:08:42;19.10;99.90
7496;DHT22;3789;47.064;15.482;2023-05-07T10:11:13;19.40;99.90
7496;DHT22;3789;47.064;15.482;2023-05-07T10:13:43;19.60;99.90
7496;DHT22;3789;47.064;15.482;2023-05-07T10:16:15;20.00;99.90
7496;DHT22;3789;47.064;15.482;2023-05-07T10:18:45;20.40;99.90
7496;DHT22;3789;47.064;15.482;2023-05-07T10:21:22;20.70;99.90
7496;DHT22;3789;47.064;15.482;2023-05-07T10:26:49;19.80;99.90
7496;DHT22;3789;47.064;15.482;2023-05-07T10:29:50;19.90;99.90
7496;DHT22;3789;47.064;15.482;2023-05-07T10:32:49;19.90;99.90
7496;DHT22;3789;47.064;15.482;2023-05-07T10:35:39;19.40;99.90
7496;DHT22;3789;47.064;15.482;2023-05-07T10:38:11;19.20;99.90
7496;DHT22;3789;47.064;15.482;2023-05-07T10:40:47;19.60;99.90
7496;DHT22;3789;47.064;15.482;2023-05-07T10:43:19;19.80;99.90
7496;DHT22;3789;47.064;15.482;2023-05-07T10:46:13;19.60;99.90
7496;DHT22;3789;47.064;15.482;2023-05-07T10:51:40;20.50;99.90
7496;DHT22;3789;47.064;15.482;2023-05-07T10:56:50;19.30;99.90
7496;DHT22;3789;47.064;15.482;2023-05-07T10:59:35;19.20;99.90
7496;DHT22;3789;47.064;15.482;2023-05-07T11:02:15;19.00;99.90
7496;DHT22;3789;47.064;15.482;2023-05-07T11:04:45;19.40;99.90
7496;DHT22;3789;47.064;15.482;2023-05-07T11:07:31;19.30;99.90
7496;DHT22;3789;47.064;15.482;2023-05-07T11:10:02;19.50;99.90
7496;DHT22;3789;47.064;15.482;2023-05-07T11:12:54;19.40;99.90
7496;DHT22;3789;47.064;15.482;2023-05-07T11:15:40;19.40;99.90
7496;DHT22;3789;47.064;15.482;2023-05-07T11:18:14;19.40;99.90
7496;DHT22;3789;47.064;15.482;2023-05-07T11:21:00;19.60;99.90
7496;DHT22;3789;47.064;15.482;2023-05-07T11:23:55;19.80;99.90
7496;DHT22;3789;47.064;15.482;2023-05-07T11:26:27;20.20;99.90
7496;DHT22;3789;47.064;15.482;2023-05-07T11:29:00;20.20;99.90
7496;DHT22;3789;47.064;15.482;2023-05-07T11:31:39;20.30;99.90
7496;DHT22;3789;47.064;15.482;2023-05-07T11:34:08;20.20;99.90
7496;DHT22;3789;47.064;15.482;2023-05-07T11:36:43;20.50;99.90
7496;DHT22;3789;47.064;15.482;2023-05-07T11:39:35;20.70;99.90
7496;DHT22;3789;47.064;15.482;2023-05-07T11:42:06;20.80;99.90
7496;DHT22;3789;47.064;15.482;2023-05-07T11:44:45;21.10;99.90
7496;DHT22;3789;47.064;15.482;2023-05-07T11:47:21;20.60;99.90
7496;DHT22;3789;47.064;15.482;2023-05-07T11:49:52;20.30;99.90
7496;DHT22;3789;47.064;15.482;2023-05-07T11:52:25;20.50;99.90
7496;DHT22;3789;47.064;15.482;2023-05-07T11:54:58;21.30;99.90
7496;DHT22;3789;47.064;15.482;2023-05-07T11:57:34;21.80;99.90
7496;DHT22;3789;47.064;15.482;2023-05-07T12:00:03;21.50;99.90
7496;DHT22;3789;47.064;15.482;2023-05-07T12:02:38;21.20;99.90
7496;DHT22;3789;47.064;15.482;2023-05-07T12:05:09;21.50;99.90
7496;DHT22;3789;47.064;15.482;2023-05-07T12:07:38;21.70;99.90
7496;DHT22;3789;47.064;15.482;2023-05-07T12:10:12;21.50;99.90
7496;DHT22;3789;47.064;15.482;2023-05-07T12:12:46;21.50;99.90
7496;DHT22;3789;47.064;15.482;2023-05-07T12:15:22;21.50;99.90
7496;DHT22;3789;47.064;15.482;2023-05-07T12:17:56;21.70;99.90
7496;DHT22;3789;47.064;15.482;2023-05-07T12:20:26;22.00;99.90
7496;DHT22;3789;47.064;15.482;2023-05-07T12:22:57;21.80;99.90
7496;DHT22;3789;47.064;15.482;2023-05-07T12:25:29;21.80;99.90
7496;DHT22;3789;47.064;15.482;2023-05-07T12:28:24;21.60;99.90
7496;DHT22;3789;47.064;15.482;2023-05-07T12:30:57;21.50;99.90
7496;DHT22;3789;47.064;15.482;2023-05-07T12:33:50;20.70;99.90
7496;DHT22;3789;47.064;15.482;2023-05-07T12:36:41;20.50;99.90
7496;DHT22;3789;47.064;15.482;2023-05-07T12:39:11;20.60;99.90
7496;DHT22;3789;47.064;15.482;2023-05-07T12:41:58;20.70;99.90
7496;DHT22;3789;47.064;15.482;2023-05-07T12:44:32;20.80;99.90
7496;DHT22;3789;47.064;15.482;2023-05-07T12:47:06;20.80;99.90
7496;DHT22;3789;47.064;15.482;2023-05-07T12:49:35;20.50;99.90
7496;DHT22;3789;47.064;15.482;2023-05-07T12:52:06;20.30;99.90
7496;DHT22;3789;47.064;15.482;2023-05-07T12:54:38;20.10;99.90
7496;DHT22;3789;47.064;15.482;2023-05-07T12:57:09;20.10;99.90
7496;DHT22;3789;47.064;15.482;2023-05-07T12:59:44;19.90;99.90
7496;DHT22;3789;47.064;15.482;2023-05-07T13:02:13;19.90;99.90
7496;DHT22;3789;47.064;15.482;2023-05-07T13:04:44;19.80;99.90
7496;DHT22;3789;47.064;15.482;2023-05-07T13:07:13;19.60;99.90
7496;DHT22;3789;47.064;15.482;2023-05-07T13:09:43;19.50;99.90
7496;DHT22;3789;47.064;15.482;2023-05-07T13:12:13;19.30;99.90
7496;DHT22;3789;47.064;15.482;2023-05-07T13:14:44;19.20;99.90
7496;DHT22;3789;47.064;15.482;2023-05-07T13:17:11;19.20;99.90
7496;DHT22;3789;47.064;15.482;2023-05-07T13:19:42;18.90;99.90
7496;DHT22;3789;47.064;15.482;2023-05-07T13:22:11;18.60;99.90
7496;DHT22;3789;47.064;15.482;2023-05-07T13:24:39;18.30;99.90
7496;DHT22;3789;47.064;15.482;2023-05-07T13:27:21;18.10;99.90
7496;DHT22;3789;47.064;15.482;2023-05-07T13:29:49;17.70;99.90
7496;DHT22;3789;47.064;15.482;2023-05-07T13:32:19;17.20;99.90
7496;DHT22;3789;47.064;15.482;2023-05-07T13:34:55;16.70;99.90
7496;DHT22;3789;47.064;15.482;2023-05-07T13:37:23;16.60;99.90
7496;DHT22;3789;47.064;15.482;2023-05-07T13:39:58;16.40;99.90
7496;DHT22;3789;47.064;15.482;2023-05-07T13:42:29;16.10;99.90
7496;DHT22;3789;47.064;15.482;2023-05-07T13:45:02;15.90;99.90
7496;DHT22;3789;47.064;15.482;2023-05-07T13:47:34;15.70;99.90
7496;DHT22;3789;47.064;15.482;2023-05-07T13:50:08;15.70;99.90
7496;DHT22;3789;47.064;15.482;2023-05-07T13:52:43;15.60;99.90
7496;DHT22;3789;47.064;15.482;2023-05-07T13:55:23;15.50;99.90
7496;DHT22;3789;47.064;15.482;2023-05-07T13:58:03;15.50;99.90
7496;DHT22;3789;47.064;15.482;2023-05-07T14:00:34;15.50;99.90
7496;DHT22;3789;47.064;15.482;2023-05-07T14:03:11;15.40;99.90
7496;DHT22;3789;47.064;15.482;2023-05-07T14:05:41;15.30;99.90
7496;DHT22;3789;47.064;15.482;2023-05-07T14:08:12;15.20;99.90
7496;DHT22;3789;47.064;15.482;2023-05-07T14:10:43;15.10;99.90
7496;DHT22;3789;47.064;15.482;2023-05-07T14:13:14;15.00;99.90
7496;DHT22;3789;47.064;15.482;2023-05-07T14:15:47;14.80;99.90
7496;DHT22;3789;47.064;15.482;2023-05-07T14:18:18;14.70;99.90
7496;DHT22;3789;47.064;15.482;2023-05-07T14:20:51;14.70;99.90
7496;DHT22;3789;47.064;15.482;2023-05-07T14:23:33;14.70;99.90
7496;DHT22;3789;47.064;15.482;2023-05-07T14:26:02;14.70;99.90
7496;DHT22;3789;47.064;15.482;2023-05-07T14:28:32;14.70;99.90
7496;DHT22;3789;47.064;15.482;2023-05-07T14:31:02;14.70;99.90
7496;DHT22;3789;47.064;15.482;2023-05-07T14:33:31;14.70;99.90
7496;DHT22;3789;47.064;15.482;2023-05-07T14:36:09;14.70;99.90
7496;DHT22;3789;47.064;15.482;2023-05-07T14:38:47;14.70;99.90
7496;DHT22;3789;47.064;15.482;2023-05-07T14:41:16;14.70;99.90
7496;DHT22;3789;47.064;15.482;2023-05-07T14:43:44;14.80;99.90
7496;DHT22;3789;47.064;15.482;2023-05-07T14:46:23;14.80;99.90
7496;DHT22;3789;47.064;15.482;2023-05-07T14:48:53;14.80;99.90
7496;DHT22;3789;47.064;15.482;2023-05-07T14:51:23;14.70;99.90
7496;DHT22;3789;47.064;15.482;2023-05-07T14:53:52;14.80;99.90
7496;DHT22;3789;47.064;15.482;2023-05-07T14:56:20;14.70;99.90
7496;DHT22;3789;47.064;15.482;2023-05-07T14:58:54;14.70;99.90
7496;DHT22;3789;47.064;15.482;2023-05-07T15:01:32;14.60;99.90
7496;DHT22;3789;47.064;15.482;2023-05-07T15:04:02;14.50;99.90
7496;DHT22;3789;47.064;15.482;2023-05-07T15:06:34;14.60;99.90
7496;DHT22;3789;47.064;15.482;2023-05-07T15:09:03;14.60;99.90
7496;DHT22;3789;47.064;15.482;2023-05-07T15:11:32;14.70;99.90
7496;DHT22;3789;47.064;15.482;2023-05-07T15:14:03;14.70;99.90
7496;DHT22;3789;47.064;15.482;2023-05-07T15:16:38;14.70;99.90
7496;DHT22;3789;47.064;15.482;2023-05-07T15:19:09;14.70;99.90
7496;DHT22;3789;47.064;15.482;2023-05-07T15:21:46;14.70;99.90
7496;DHT22;3789;47.064;15.482;2023-05-07T15:24:19;14.80;99.90
7496;DHT22;3789;47.064;15.482;2023-05-07T15:26:48;14.80;99.90
7496;DHT22;3789;47.064;15.482;2023-05-07T15:29:26;14.80;99.90
7496;DHT22;3789;47.064;15.482;2023-05-07T15:31:55;14.80;99.90
7496;DHT22;3789;47.064;15.482;2023-05-07T15:34:26;14.90;99.90
7496;DHT22;3789;47.064;15.482;2023-05-07T15:36:59;15.00;99.90
7496;DHT22;3789;47.064;15.482;2023-05-07T15:39:28;15.10;99.90
7496;DHT22;3789;47.064;15.482;2023-05-07T15:41:58;15.20;99.90
7496;DHT22;3789;47.064;15.482;2023-05-07T15:44:26;15.40;99.90
7496;DHT22;3789;47.064;15.482;2023-05-07T15:47:09;15.40;99.90
7496;DHT22;3789;47.064;15.482;2023-05-07T15:49:40;15.40;99.90
7496;DHT22;3789;47.064;15.482;2023-05-07T15:52:09;15.50;99.90
7496;DHT22;3789;47.064;15.482;2023-05-07T15:54:48;15.50;99.90
7496;DHT22;3789;47.064;15.482;2023-05-07T15:57:15;15.40;99.90
7496;DHT22;3789;47.064;15.482;2023-05-07T15:59:47;15.50;99.90
7496;DHT22;3789;47.064;15.482;2023-05-07T16:02:24;15.40;99.90
7496;DHT22;3789;47.064;15.482;2023-05-07T16:04:52;15.40;99.90
7496;DHT22;3789;47.064;15.482;2023-05-07T16:07:28;15.40;99.90
7496;DHT22;3789;47.064;15.482;2023-05-07T16:10:03;15.40;99.90
7496;DHT22;3789;47.064;15.482;2023-05-07T16:12:43;15.40;99.90
7496;DHT22;3789;47.064;15.482;2023-05-07T16:15:19;15.50;99.90
7496;DHT22;3789;47.064;15.482;2023-05-07T16:17:55;15.50;99.90
7496;DHT22;3789;47.064;15.482;2023-05-07T16:20:28;15.50;99.90
7496;DHT22;3789;47.064;15.482;2023-05-07T16:23:02;15.60;99.90
7496;DHT22;3789;47.064;15.482;2023-05-07T16:25:32;15.60;99.90
7496;DHT22;3789;47.064;15.482;2023-05-07T16:28:02;15.60;99.90
7496;DHT22;3789;47.064;15.482;2023-05-07T16:30:29;15.60;99.90